sensor_id;sensor_type;location;lat;lon;timestamp;P1;durP1;ratioP1;P2;durP2;ratioP2
50781;SDS011;36749;37.428;-121.972;2022-10-16T00:00:36;16.15;;;7.93;;
50781;SDS011;36749;37.428;-121.972;2022-10-16T00:03:03;17.70;;;7.47;;
50781;SDS011;36749;37.428;-121.972;2022-10-16T00:05:30;14.65;;;7.32;;
50781;SDS011;36749;37.428;-121.972;2022-10-16T00:07:56;15.93;;;7.45;;
50781;SDS011;36749;37.428;-121.972;2022-10-16T00:10:22;15.70;;;7.65;;
50781;SDS011;36749;37.428;-121.972;2022-10-16T00:12:48;16.23;;;7.53;;
50781;SDS011;36749;37.428;-121.972;2022-10-16T00:15:15;14.25;;;7.30;;
50781;SDS011;36749;37.428;-121.972;2022-10-16T00:17:41;16.80;;;7.45;;
50781;SDS011;36749;37.428;-121.972;2022-10-16T00:20:07;13.82;;;7.10;;
50781;SDS011;36749;37.428;-121.972;2022-10-16T00:22:34;13.75;;;7.30;;
50781;SDS011;36749;37.428;-121.972;2022-10-16T00:25:00;13.93;;;6.70;;
50781;SDS011;36749;37.428;-121.972;2022-10-16T00:27:26;15.27;;;7.03;;
50781;SDS011;36749;37.428;-121.972;2022-10-16T00:29:52;15.05;;;7.20;;
50781;SDS011;36749;37.428;-121.972;2022-10-16T00:32:18;17.10;;;7.47;;
50781;SDS011;36749;37.428;-121.972;2022-10-16T00:34:45;17.25;;;7.78;;
50781;SDS011;36749;37.428;-121.972;2022-10-16T00:37:12;13.07;;;6.35;;
50781;SDS011;36749;37.428;-121.972;2022-10-16T00:39:38;13.18;;;6.70;;
50781;SDS011;36749;37.428;-121.972;2022-10-16T00:42:04;16.38;;;8.30;;
50781;SDS011;36749;37.428;-121.972;2022-10-16T00:44:50;13.73;;;7.00;;
50781;SDS011;36749;37.428;-121.972;2022-10-16T00:50:32;14.57;;;7.53;;
50781;SDS011;36749;37.428;-121.972;2022-10-16T00:52:59;15.57;;;6.90;;
50781;SDS011;36749;37.428;-121.972;2022-10-16T00:55:26;13.93;;;7.15;;
50781;SDS011;36749;37.428;-121.972;2022-10-16T00:57:55;16.08;;;7.45;;
50781;SDS011;36749;37.428;-121.972;2022-10-16T01:00:22;16.65;;;7.50;;
50781;SDS011;36749;37.428;-121.972;2022-10-16T01:02:57;11.93;;;6.85;;
50781;SDS011;36749;37.428;-121.972;2022-10-16T01:05:30;16.00;;;7.88;;
50781;SDS011;36749;37.428;-121.972;2022-10-16T01:08:04;19.77;;;7.65;;
50781;SDS011;36749;37.428;-121.972;2022-10-16T01:10:48;18.38;;;8.05;;
50781;SDS011;36749;37.428;-121.972;2022-10-16T01:13:54;13.32;;;7.57;;
50781;SDS011;36749;37.428;-121.972;2022-10-16T01:16:37;12.13;;;6.53;;
50781;SDS011;36749;37.428;-121.972;2022-10-16T01:22:02;17.13;;;7.75;;
50781;SDS011;36749;37.428;-121.972;2022-10-16T01:35:30;13.23;;;7.03;;
50781;SDS011;36749;37.428;-121.972;2022-10-16T01:38:05;14.60;;;7.00;;
50781;SDS011;36749;37.428;-121.972;2022-10-16T01:40:36;14.82;;;7.80;;
50781;SDS011;36749;37.428;-121.972;2022-10-16T01:43:08;13.68;;;6.80;;
50781;SDS011;36749;37.428;-121.972;2022-10-16T01:45:38;16.17;;;7.60;;
50781;SDS011;36749;37.428;-121.972;2022-10-16T01:48:05;15.48;;;7.32;;
50781;SDS011;36749;37.428;-121.972;2022-10-16T01:50:35;15.32;;;6.57;;
50781;SDS011;36749;37.428;-121.972;2022-10-16T01:53:05;16.10;;;7.85;;
50781;SDS011;36749;37.428;-121.972;2022-10-16T01:55:34;15.65;;;6.72;;
50781;SDS011;36749;37.428;-121.972;2022-10-16T01:58:02;14.30;;;7.03;;
50781;SDS011;36749;37.428;-121.972;2022-10-16T02:00:29;14.55;;;7.03;;
50781;SDS011;36749;37.428;-121.972;2022-10-16T02:02:56;12.65;;;6.88;;
50781;SDS011;36749;37.428;-121.972;2022-10-16T02:05:28;11.38;;;6.40;;
50781;SDS011;36749;37.428;-121.972;2022-10-16T02:07:56;13.85;;;6.50;;
50781;SDS011;36749;37.428;-121.972;2022-10-16T02:10:22;14.57;;;7.00;;
50781;SDS011;36749;37.428;-121.972;2022-10-16T02:13:35;14.05;;;6.82;;
50781;SDS011;36749;37.428;-121.972;2022-10-16T02:15:41;16.67;;;6.60;;
50781;SDS011;36749;37.428;-121.972;2022-10-16T02:18:07;13.90;;;6.95;;
50781;SDS011;36749;37.428;-121.972;2022-10-16T02:23:45;13.75;;;7.30;;
50781;SDS011;36749;37.428;-121.972;2022-10-16T02:26:18;12.82;;;6.40;;
50781;SDS011;36749;37.428;-121.972;2022-10-16T02:28:56;17.52;;;7.68;;
50781;SDS011;36749;37.428;-121.972;2022-10-16T02:31:27;11.38;;;6.93;;
50781;SDS011;36749;37.428;-121.972;2022-10-16T02:33:55;11.80;;;6.68;;
50781;SDS011;36749;37.428;-121.972;2022-10-16T02:36:23;14.43;;;7.93;;
50781;SDS011;36749;37.428;-121.972;2022-10-16T02:38:49;16.10;;;7.45;;
50781;SDS011;36749;37.428;-121.972;2022-10-16T02:41:15;14.95;;;6.85;;
50781;SDS011;36749;37.428;-121.972;2022-10-16T02:43:41;13.25;;;6.97;;
50781;SDS011;36749;37.428;-121.972;2022-10-16T02:46:07;12.52;;;6.85;;
50781;SDS011;36749;37.428;-121.972;2022-10-16T02:48:34;12.70;;;6.70;;
50781;SDS011;36749;37.428;-121.972;2022-10-16T02:51:01;13.50;;;7.03;;
50781;SDS011;36749;37.428;-121.972;2022-10-16T02:53:27;15.25;;;7.25;;
50781;SDS011;36749;37.428;-121.972;2022-10-16T02:55:53;14.82;;;7.05;;
50781;SDS011;36749;37.428;-121.972;2022-10-16T02:58:20;13.07;;;7.82;;
50781;SDS011;36749;37.428;-121.972;2022-10-16T03:00:46;13.38;;;6.53;;
50781;SDS011;36749;37.428;-121.972;2022-10-16T03:03:13;13.68;;;6.25;;
50781;SDS011;36749;37.428;-121.972;2022-10-16T03:05:39;11.65;;;7.10;;
50781;SDS011;36749;37.428;-121.972;2022-10-16T03:08:05;14.40;;;7.13;;
50781;SDS011;36749;37.428;-121.972;2022-10-16T03:10:31;13.32;;;7.15;;
50781;SDS011;36749;37.428;-121.972;2022-10-16T03:12:57;13.40;;;6.70;;
50781;SDS011;36749;37.428;-121.972;2022-10-16T03:15:24;12.30;;;6.78;;
50781;SDS011;36749;37.428;-121.972;2022-10-16T03:17:51;12.73;;;7.03;;
50781;SDS011;36749;37.428;-121.972;2022-10-16T03:20:17;11.85;;;6.20;;
50781;SDS011;36749;37.428;-121.972;2022-10-16T03:22:43;11.63;;;6.55;;
50781;SDS011;36749;37.428;-121.972;2022-10-16T03:25:09;12.18;;;6.45;;
50781;SDS011;36749;37.428;-121.972;2022-10-16T03:27:35;13.38;;;6.10;;
50781;SDS011;36749;37.428;-121.972;2022-10-16T03:30:02;11.48;;;6.15;;
50781;SDS011;36749;37.428;-121.972;2022-10-16T03:32:28;11.95;;;6.35;;
50781;SDS011;36749;37.428;-121.972;2022-10-16T03:34:54;13.35;;;7.10;;
50781;SDS011;36749;37.428;-121.972;2022-10-16T03:37:22;12.38;;;6.57;;
50781;SDS011;36749;37.428;-121.972;2022-10-16T03:39:48;17.55;;;8.02;;
50781;SDS011;36749;37.428;-121.972;2022-10-16T03:42:14;13.02;;;7.15;;
50781;SDS011;36749;37.428;-121.972;2022-10-16T03:44:40;11.75;;;5.88;;
50781;SDS011;36749;37.428;-121.972;2022-10-16T03:47:06;10.93;;;5.95;;
50781;SDS011;36749;37.428;-121.972;2022-10-16T03:49:32;12.55;;;6.20;;
50781;SDS011;36749;37.428;-121.972;2022-10-16T03:51:58;14.45;;;6.70;;
50781;SDS011;36749;37.428;-121.972;2022-10-16T03:54:24;12.20;;;6.85;;
50781;SDS011;36749;37.428;-121.972;2022-10-16T03:56:51;17.50;;;6.65;;
50781;SDS011;36749;37.428;-121.972;2022-10-16T03:59:17;10.85;;;5.90;;
50781;SDS011;36749;37.428;-121.972;2022-10-16T04:01:43;11.55;;;6.25;;
50781;SDS011;36749;37.428;-121.972;2022-10-16T04:04:09;11.95;;;6.28;;
50781;SDS011;36749;37.428;-121.972;2022-10-16T04:06:35;9.77;;;6.30;;
50781;SDS011;36749;37.428;-121.972;2022-10-16T04:09:01;15.02;;;5.93;;
50781;SDS011;36749;37.428;-121.972;2022-10-16T04:11:28;12.20;;;6.03;;
50781;SDS011;36749;37.428;-121.972;2022-10-16T04:13:54;11.90;;;5.82;;
50781;SDS011;36749;37.428;-121.972;2022-10-16T04:16:20;11.88;;;6.07;;
50781;SDS011;36749;37.428;-121.972;2022-10-16T04:18:46;11.00;;;5.47;;
50781;SDS011;36749;37.428;-121.972;2022-10-16T04:21:12;12.30;;;6.20;;
50781;SDS011;36749;37.428;-121.972;2022-10-16T04:23:39;11.20;;;6.55;;
50781;SDS011;36749;37.428;-121.972;2022-10-16T04:26:05;9.75;;;5.80;;
50781;SDS011;36749;37.428;-121.972;2022-10-16T04:28:31;8.68;;;5.45;;
50781;SDS011;36749;37.428;-121.972;2022-10-16T04:30:57;8.65;;;4.95;;
50781;SDS011;36749;37.428;-121.972;2022-10-16T04:33:23;9.50;;;5.00;;
50781;SDS011;36749;37.428;-121.972;2022-10-16T04:35:55;11.15;;;5.18;;
50781;SDS011;36749;37.428;-121.972;2022-10-16T04:38:23;13.07;;;6.03;;
50781;SDS011;36749;37.428;-121.972;2022-10-16T04:40:49;10.43;;;5.55;;
50781;SDS011;36749;37.428;-121.972;2022-10-16T04:43:15;10.43;;;5.20;;
50781;SDS011;36749;37.428;-121.972;2022-10-16T04:45:41;9.73;;;5.55;;
50781;SDS011;36749;37.428;-121.972;2022-10-16T04:48:07;10.70;;;5.45;;
50781;SDS011;36749;37.428;-121.972;2022-10-16T04:50:34;11.77;;;5.72;;
50781;SDS011;36749;37.428;-121.972;2022-10-16T04:53:00;10.55;;;5.45;;
50781;SDS011;36749;37.428;-121.972;2022-10-16T04:55:26;11.77;;;6.05;;
50781;SDS011;36749;37.428;-121.972;2022-10-16T04:57:52;12.32;;;5.78;;
50781;SDS011;36749;37.428;-121.972;2022-10-16T05:00:19;12.88;;;6.50;;
50781;SDS011;36749;37.428;-121.972;2022-10-16T05:02:45;11.57;;;6.20;;
50781;SDS011;36749;37.428;-121.972;2022-10-16T05:05:11;10.80;;;5.40;;
50781;SDS011;36749;37.428;-121.972;2022-10-16T05:07:37;11.95;;;6.40;;
50781;SDS011;36749;37.428;-121.972;2022-10-16T05:10:03;11.75;;;6.22;;
50781;SDS011;36749;37.428;-121.972;2022-10-16T05:12:29;9.68;;;5.13;;
50781;SDS011;36749;37.428;-121.972;2022-10-16T05:14:56;11.65;;;6.22;;
50781;SDS011;36749;37.428;-121.972;2022-10-16T05:17:24;10.30;;;6.15;;
50781;SDS011;36749;37.428;-121.972;2022-10-16T05:19:51;10.55;;;5.30;;
50781;SDS011;36749;37.428;-121.972;2022-10-16T05:22:17;10.55;;;5.50;;
50781;SDS011;36749;37.428;-121.972;2022-10-16T05:24:43;8.88;;;4.93;;
50781;SDS011;36749;37.428;-121.972;2022-10-16T05:27:10;9.65;;;5.30;;
50781;SDS011;36749;37.428;-121.972;2022-10-16T05:29:44;11.63;;;5.45;;
50781;SDS011;36749;37.428;-121.972;2022-10-16T05:32:12;9.57;;;5.25;;
50781;SDS011;36749;37.428;-121.972;2022-10-16T05:34:42;11.23;;;6.07;;
50781;SDS011;36749;37.428;-121.972;2022-10-16T05:37:09;11.52;;;5.53;;
50781;SDS011;36749;37.428;-121.972;2022-10-16T05:39:37;9.02;;;5.32;;
50781;SDS011;36749;37.428;-121.972;2022-10-16T05:42:03;11.55;;;5.75;;
50781;SDS011;36749;37.428;-121.972;2022-10-16T05:44:30;10.15;;;5.63;;
50781;SDS011;36749;37.428;-121.972;2022-10-16T05:46:56;14.77;;;6.80;;
50781;SDS011;36749;37.428;-121.972;2022-10-16T05:49:23;11.30;;;6.03;;
50781;SDS011;36749;37.428;-121.972;2022-10-16T05:51:49;11.88;;;5.22;;
50781;SDS011;36749;37.428;-121.972;2022-10-16T05:54:15;8.07;;;5.05;;
50781;SDS011;36749;37.428;-121.972;2022-10-16T05:56:41;11.05;;;6.03;;
50781;SDS011;36749;37.428;-121.972;2022-10-16T05:59:07;11.18;;;5.68;;
50781;SDS011;36749;37.428;-121.972;2022-10-16T06:01:34;11.48;;;6.00;;
50781;SDS011;36749;37.428;-121.972;2022-10-16T06:04:00;11.88;;;6.22;;
50781;SDS011;36749;37.428;-121.972;2022-10-16T06:06:27;12.43;;;6.18;;
50781;SDS011;36749;37.428;-121.972;2022-10-16T06:08:55;9.85;;;5.68;;
50781;SDS011;36749;37.428;-121.972;2022-10-16T06:11:25;13.82;;;6.43;;
50781;SDS011;36749;37.428;-121.972;2022-10-16T06:13:57;11.40;;;5.55;;
50781;SDS011;36749;37.428;-121.972;2022-10-16T06:16:27;11.63;;;5.40;;
50781;SDS011;36749;37.428;-121.972;2022-10-16T06:18:54;14.85;;;6.30;;
50781;SDS011;36749;37.428;-121.972;2022-10-16T06:21:22;12.32;;;5.63;;
50781;SDS011;36749;37.428;-121.972;2022-10-16T06:23:52;11.38;;;5.95;;
50781;SDS011;36749;37.428;-121.972;2022-10-16T06:26:20;12.05;;;6.25;;
50781;SDS011;36749;37.428;-121.972;2022-10-16T06:28:48;11.30;;;5.95;;
50781;SDS011;36749;37.428;-121.972;2022-10-16T06:31:15;12.18;;;6.47;;
50781;SDS011;36749;37.428;-121.972;2022-10-16T06:33:41;13.02;;;5.93;;
50781;SDS011;36749;37.428;-121.972;2022-10-16T06:36:12;10.70;;;5.88;;
50781;SDS011;36749;37.428;-121.972;2022-10-16T06:38:39;13.18;;;6.00;;
50781;SDS011;36749;37.428;-121.972;2022-10-16T06:41:06;10.82;;;5.35;;
50781;SDS011;36749;37.428;-121.972;2022-10-16T06:43:33;10.52;;;5.43;;
50781;SDS011;36749;37.428;-121.972;2022-10-16T06:46:03;14.35;;;6.85;;
50781;SDS011;36749;37.428;-121.972;2022-10-16T06:48:30;10.77;;;5.68;;
50781;SDS011;36749;37.428;-121.972;2022-10-16T06:51:00;12.73;;;5.82;;
50781;SDS011;36749;37.428;-121.972;2022-10-16T06:53:29;12.48;;;6.13;;
50781;SDS011;36749;37.428;-121.972;2022-10-16T06:55:57;15.27;;;6.70;;
50781;SDS011;36749;37.428;-121.972;2022-10-16T06:58:24;12.85;;;6.10;;
50781;SDS011;36749;37.428;-121.972;2022-10-16T07:00:55;12.20;;;6.10;;
50781;SDS011;36749;37.428;-121.972;2022-10-16T07:03:22;11.07;;;5.82;;
50781;SDS011;36749;37.428;-121.972;2022-10-16T07:05:48;13.07;;;6.88;;
50781;SDS011;36749;37.428;-121.972;2022-10-16T07:08:14;10.95;;;5.93;;
50781;SDS011;36749;37.428;-121.972;2022-10-16T07:10:40;12.75;;;6.32;;
50781;SDS011;36749;37.428;-121.972;2022-10-16T07:13:07;11.45;;;6.13;;
50781;SDS011;36749;37.428;-121.972;2022-10-16T07:15:33;13.05;;;6.30;;
50781;SDS011;36749;37.428;-121.972;2022-10-16T07:17:59;12.50;;;6.75;;
50781;SDS011;36749;37.428;-121.972;2022-10-16T07:20:25;11.80;;;5.95;;
50781;SDS011;36749;37.428;-121.972;2022-10-16T07:22:51;11.43;;;6.13;;
50781;SDS011;36749;37.428;-121.972;2022-10-16T07:25:18;13.10;;;6.18;;
50781;SDS011;36749;37.428;-121.972;2022-10-16T07:27:44;11.52;;;6.10;;
50781;SDS011;36749;37.428;-121.972;2022-10-16T07:30:10;13.60;;;6.65;;
50781;SDS011;36749;37.428;-121.972;2022-10-16T07:32:36;12.10;;;6.15;;
50781;SDS011;36749;37.428;-121.972;2022-10-16T07:35:03;8.93;;;5.18;;
50781;SDS011;36749;37.428;-121.972;2022-10-16T07:37:29;10.23;;;5.63;;
50781;SDS011;36749;37.428;-121.972;2022-10-16T07:39:55;14.70;;;6.28;;
50781;SDS011;36749;37.428;-121.972;2022-10-16T07:42:21;13.27;;;6.72;;
50781;SDS011;36749;37.428;-121.972;2022-10-16T07:44:48;13.10;;;6.47;;
50781;SDS011;36749;37.428;-121.972;2022-10-16T07:47:14;12.13;;;6.65;;
50781;SDS011;36749;37.428;-121.972;2022-10-16T07:49:40;12.40;;;6.07;;
50781;SDS011;36749;37.428;-121.972;2022-10-16T07:52:06;11.18;;;5.95;;
50781;SDS011;36749;37.428;-121.972;2022-10-16T07:54:33;11.45;;;6.18;;
50781;SDS011;36749;37.428;-121.972;2022-10-16T07:56:59;9.93;;;5.80;;
50781;SDS011;36749;37.428;-121.972;2022-10-16T07:59:25;12.23;;;6.13;;
50781;SDS011;36749;37.428;-121.972;2022-10-16T08:01:51;16.63;;;7.50;;
50781;SDS011;36749;37.428;-121.972;2022-10-16T08:04:17;14.63;;;6.47;;
50781;SDS011;36749;37.428;-121.972;2022-10-16T08:06:43;16.00;;;7.18;;
50781;SDS011;36749;37.428;-121.972;2022-10-16T08:09:09;14.00;;;6.63;;
50781;SDS011;36749;37.428;-121.972;2022-10-16T08:11:35;15.75;;;6.57;;
50781;SDS011;36749;37.428;-121.972;2022-10-16T08:14:02;17.42;;;7.38;;
50781;SDS011;36749;37.428;-121.972;2022-10-16T08:16:28;13.50;;;6.93;;
50781;SDS011;36749;37.428;-121.972;2022-10-16T08:18:54;19.33;;;8.70;;
50781;SDS011;36749;37.428;-121.972;2022-10-16T08:21:21;16.40;;;7.20;;
50781;SDS011;36749;37.428;-121.972;2022-10-16T08:23:50;13.20;;;7.00;;
50781;SDS011;36749;37.428;-121.972;2022-10-16T08:26:16;13.30;;;7.22;;
50781;SDS011;36749;37.428;-121.972;2022-10-16T08:28:44;14.10;;;7.15;;
50781;SDS011;36749;37.428;-121.972;2022-10-16T08:31:11;17.33;;;7.57;;
50781;SDS011;36749;37.428;-121.972;2022-10-16T08:33:39;13.93;;;7.50;;
50781;SDS011;36749;37.428;-121.972;2022-10-16T08:36:07;15.18;;;8.55;;
50781;SDS011;36749;37.428;-121.972;2022-10-16T08:38:35;16.42;;;7.57;;
50781;SDS011;36749;37.428;-121.972;2022-10-16T08:41:09;14.57;;;7.07;;
50781;SDS011;36749;37.428;-121.972;2022-10-16T08:44:09;16.92;;;7.93;;
50781;SDS011;36749;37.428;-121.972;2022-10-16T08:46:58;14.98;;;7.82;;
50781;SDS011;36749;37.428;-121.972;2022-10-16T08:49:29;13.30;;;7.30;;
50781;SDS011;36749;37.428;-121.972;2022-10-16T08:51:56;13.70;;;7.40;;
50781;SDS011;36749;37.428;-121.972;2022-10-16T08:54:32;16.08;;;7.38;;
50781;SDS011;36749;37.428;-121.972;2022-10-16T08:57:09;16.50;;;6.95;;
50781;SDS011;36749;37.428;-121.972;2022-10-16T08:59:45;17.85;;;7.75;;
50781;SDS011;36749;37.428;-121.972;2022-10-16T09:05:02;14.80;;;7.07;;
50781;SDS011;36749;37.428;-121.972;2022-10-16T09:07:49;17.23;;;7.90;;
50781;SDS011;36749;37.428;-121.972;2022-10-16T09:10:51;13.68;;;6.78;;
50781;SDS011;36749;37.428;-121.972;2022-10-16T09:13:36;14.73;;;7.18;;
50781;SDS011;36749;37.428;-121.972;2022-10-16T09:21:39;15.30;;;6.50;;
50781;SDS011;36749;37.428;-121.972;2022-10-16T09:24:17;12.98;;;6.97;;
50781;SDS011;36749;37.428;-121.972;2022-10-16T09:26:44;13.43;;;7.00;;
50781;SDS011;36749;37.428;-121.972;2022-10-16T09:29:12;14.55;;;7.15;;
50781;SDS011;36749;37.428;-121.972;2022-10-16T09:31:42;16.23;;;7.32;;
50781;SDS011;36749;37.428;-121.972;2022-10-16T09:34:20;14.70;;;7.05;;
50781;SDS011;36749;37.428;-121.972;2022-10-16T09:36:51;14.90;;;7.33;;
50781;SDS011;36749;37.428;-121.972;2022-10-16T09:39:18;13.65;;;7.28;;
50781;SDS011;36749;37.428;-121.972;2022-10-16T09:41:44;14.98;;;7.45;;
50781;SDS011;36749;37.428;-121.972;2022-10-16T09:44:29;16.75;;;7.63;;
50781;SDS011;36749;37.428;-121.972;2022-10-16T09:47:02;12.18;;;6.78;;
50781;SDS011;36749;37.428;-121.972;2022-10-16T09:49:38;14.75;;;7.13;;
50781;SDS011;36749;37.428;-121.972;2022-10-16T09:52:05;15.07;;;7.57;;
50781;SDS011;36749;37.428;-121.972;2022-10-16T09:54:37;14.70;;;6.90;;
50781;SDS011;36749;37.428;-121.972;2022-10-16T09:57:17;14.80;;;6.75;;
50781;SDS011;36749;37.428;-121.972;2022-10-16T09:59:48;12.75;;;6.28;;
50781;SDS011;36749;37.428;-121.972;2022-10-16T10:02:19;12.88;;;6.70;;
50781;SDS011;36749;37.428;-121.972;2022-10-16T10:04:53;16.58;;;6.90;;
50781;SDS011;36749;37.428;-121.972;2022-10-16T10:07:21;12.70;;;6.18;;
50781;SDS011;36749;37.428;-121.972;2022-10-16T10:09:51;13.52;;;6.72;;
50781;SDS011;36749;37.428;-121.972;2022-10-16T10:12:27;15.13;;;7.00;;
50781;SDS011;36749;37.428;-121.972;2022-10-16T10:14:58;16.33;;;7.93;;
50781;SDS011;36749;37.428;-121.972;2022-10-16T10:17:29;16.88;;;7.88;;
50781;SDS011;36749;37.428;-121.972;2022-10-16T10:22:28;13.75;;;6.82;;
50781;SDS011;36749;37.428;-121.972;2022-10-16T10:27:21;15.55;;;7.30;;
50781;SDS011;36749;37.428;-121.972;2022-10-16T10:30:23;17.17;;;8.45;;
50781;SDS011;36749;37.428;-121.972;2022-10-16T10:33:37;12.90;;;6.95;;
50781;SDS011;36749;37.428;-121.972;2022-10-16T10:35:56;13.77;;;6.80;;
50781;SDS011;36749;37.428;-121.972;2022-10-16T10:38:34;12.90;;;6.97;;
50781;SDS011;36749;37.428;-121.972;2022-10-16T10:46:45;13.32;;;7.00;;
50781;SDS011;36749;37.428;-121.972;2022-10-16T10:55:03;10.13;;;5.82;;
50781;SDS011;36749;37.428;-121.972;2022-10-16T11:01:24;14.05;;;6.93;;
50781;SDS011;36749;37.428;-121.972;2022-10-16T11:11:47;12.27;;;6.35;;
50781;SDS011;36749;37.428;-121.972;2022-10-16T11:16:56;15.02;;;7.07;;
50781;SDS011;36749;37.428;-121.972;2022-10-16T11:24:45;16.00;;;7.63;;
50781;SDS011;36749;37.428;-121.972;2022-10-16T11:27:17;17.40;;;7.07;;
50781;SDS011;36749;37.428;-121.972;2022-10-16T11:29:52;14.43;;;6.40;;
50781;SDS011;36749;37.428;-121.972;2022-10-16T11:32:33;13.75;;;7.38;;
50781;SDS011;36749;37.428;-121.972;2022-10-16T11:35:08;15.85;;;7.18;;
50781;SDS011;36749;37.428;-121.972;2022-10-16T11:37:41;11.48;;;6.43;;
50781;SDS011;36749;37.428;-121.972;2022-10-16T11:40:21;13.98;;;6.93;;
50781;SDS011;36749;37.428;-121.972;2022-10-16T11:42:52;14.13;;;7.50;;
50781;SDS011;36749;37.428;-121.972;2022-10-16T11:47:58;12.25;;;6.28;;
50781;SDS011;36749;37.428;-121.972;2022-10-16T11:50:45;14.63;;;6.95;;
50781;SDS011;36749;37.428;-121.972;2022-10-16T11:56:16;10.55;;;6.03;;
50781;SDS011;36749;37.428;-121.972;2022-10-16T11:58:50;11.75;;;6.25;;
50781;SDS011;36749;37.428;-121.972;2022-10-16T12:01:27;11.73;;;6.07;;
50781;SDS011;36749;37.428;-121.972;2022-10-16T12:06:59;14.25;;;6.50;;
50781;SDS011;36749;37.428;-121.972;2022-10-16T12:09:34;15.35;;;7.40;;
50781;SDS011;36749;37.428;-121.972;2022-10-16T12:12:22;15.38;;;6.88;;
50781;SDS011;36749;37.428;-121.972;2022-10-16T12:14:59;12.50;;;5.93;;
50781;SDS011;36749;37.428;-121.972;2022-10-16T12:17:43;11.50;;;6.03;;
50781;SDS011;36749;37.428;-121.972;2022-10-16T12:25:25;12.95;;;6.18;;
50781;SDS011;36749;37.428;-121.972;2022-10-16T12:27:55;11.32;;;6.15;;
50781;SDS011;36749;37.428;-121.972;2022-10-16T12:30:23;13.57;;;6.38;;
50781;SDS011;36749;37.428;-121.972;2022-10-16T12:32:57;12.18;;;6.53;;
50781;SDS011;36749;37.428;-121.972;2022-10-16T12:35:29;10.52;;;6.28;;
50781;SDS011;36749;37.428;-121.972;2022-10-16T12:38:07;12.85;;;6.70;;
50781;SDS011;36749;37.428;-121.972;2022-10-16T12:40:44;11.02;;;6.32;;
50781;SDS011;36749;37.428;-121.972;2022-10-16T12:43:24;13.98;;;7.28;;
50781;SDS011;36749;37.428;-121.972;2022-10-16T12:51:11;12.43;;;6.45;;
50781;SDS011;36749;37.428;-121.972;2022-10-16T12:53:45;13.90;;;6.32;;
50781;SDS011;36749;37.428;-121.972;2022-10-16T12:56:16;11.43;;;6.20;;
50781;SDS011;36749;37.428;-121.972;2022-10-16T12:58:55;12.55;;;6.28;;
50781;SDS011;36749;37.428;-121.972;2022-10-16T13:02:31;13.05;;;6.75;;
50781;SDS011;36749;37.428;-121.972;2022-10-16T13:12:57;13.20;;;6.68;;
50781;SDS011;36749;37.428;-121.972;2022-10-16T13:16:01;12.05;;;6.68;;
50781;SDS011;36749;37.428;-121.972;2022-10-16T13:18:40;11.35;;;6.45;;
50781;SDS011;36749;37.428;-121.972;2022-10-16T13:29:41;14.50;;;6.75;;
50781;SDS011;36749;37.428;-121.972;2022-10-16T13:32:08;13.73;;;6.72;;
50781;SDS011;36749;37.428;-121.972;2022-10-16T13:34:45;13.88;;;7.15;;
50781;SDS011;36749;37.428;-121.972;2022-10-16T13:37:19;14.10;;;6.53;;
50781;SDS011;36749;37.428;-121.972;2022-10-16T13:39:49;14.45;;;6.97;;
50781;SDS011;36749;37.428;-121.972;2022-10-16T13:42:22;10.45;;;6.05;;
50781;SDS011;36749;37.428;-121.972;2022-10-16T13:44:51;11.82;;;6.05;;
50781;SDS011;36749;37.428;-121.972;2022-10-16T13:50:05;12.20;;;6.57;;
50781;SDS011;36749;37.428;-121.972;2022-10-16T13:52:35;12.35;;;6.60;;
50781;SDS011;36749;37.428;-121.972;2022-10-16T13:55:02;14.10;;;7.15;;
50781;SDS011;36749;37.428;-121.972;2022-10-16T13:57:28;13.48;;;6.90;;
50781;SDS011;36749;37.428;-121.972;2022-10-16T13:59:55;12.98;;;6.40;;
50781;SDS011;36749;37.428;-121.972;2022-10-16T14:04:53;15.57;;;6.88;;
50781;SDS011;36749;37.428;-121.972;2022-10-16T14:07:22;13.93;;;6.90;;
50781;SDS011;36749;37.428;-121.972;2022-10-16T14:09:50;12.95;;;6.25;;
50781;SDS011;36749;37.428;-121.972;2022-10-16T14:12:17;11.60;;;6.35;;
50781;SDS011;36749;37.428;-121.972;2022-10-16T14:14:44;14.18;;;6.65;;
50781;SDS011;36749;37.428;-121.972;2022-10-16T14:17:15;16.33;;;6.35;;
50781;SDS011;36749;37.428;-121.972;2022-10-16T14:19:46;12.23;;;6.18;;
50781;SDS011;36749;37.428;-121.972;2022-10-16T14:24:56;10.13;;;5.65;;
50781;SDS011;36749;37.428;-121.972;2022-10-16T14:30:05;13.32;;;6.15;;
50781;SDS011;36749;37.428;-121.972;2022-10-16T14:32:34;14.77;;;6.88;;
50781;SDS011;36749;37.428;-121.972;2022-10-16T14:35:01;11.82;;;6.82;;
50781;SDS011;36749;37.428;-121.972;2022-10-16T14:37:28;12.02;;;6.75;;
50781;SDS011;36749;37.428;-121.972;2022-10-16T14:39:55;13.80;;;6.80;;
50781;SDS011;36749;37.428;-121.972;2022-10-16T14:42:22;11.48;;;6.78;;
50781;SDS011;36749;37.428;-121.972;2022-10-16T14:44:52;13.73;;;6.70;;
50781;SDS011;36749;37.428;-121.972;2022-10-16T14:47:20;12.25;;;6.22;;
50781;SDS011;36749;37.428;-121.972;2022-10-16T14:49:53;13.15;;;6.63;;
50781;SDS011;36749;37.428;-121.972;2022-10-16T14:52:21;11.48;;;6.10;;
50781;SDS011;36749;37.428;-121.972;2022-10-16T14:54:50;15.18;;;7.00;;
50781;SDS011;36749;37.428;-121.972;2022-10-16T14:57:23;13.23;;;6.68;;
50781;SDS011;36749;37.428;-121.972;2022-10-16T14:59:51;14.68;;;6.97;;
50781;SDS011;36749;37.428;-121.972;2022-10-16T15:04:47;13.93;;;7.28;;
50781;SDS011;36749;37.428;-121.972;2022-10-16T15:07:14;13.32;;;6.88;;
50781;SDS011;36749;37.428;-121.972;2022-10-16T15:09:40;15.27;;;6.80;;
50781;SDS011;36749;37.428;-121.972;2022-10-16T15:12:06;15.32;;;7.80;;
50781;SDS011;36749;37.428;-121.972;2022-10-16T15:14:32;13.73;;;6.85;;
50781;SDS011;36749;37.428;-121.972;2022-10-16T15:16:58;15.13;;;7.72;;
50781;SDS011;36749;37.428;-121.972;2022-10-16T15:19:24;15.20;;;7.88;;
50781;SDS011;36749;37.428;-121.972;2022-10-16T15:21:50;16.50;;;8.48;;
50781;SDS011;36749;37.428;-121.972;2022-10-16T15:24:17;16.25;;;8.65;;
50781;SDS011;36749;37.428;-121.972;2022-10-16T15:26:43;18.25;;;8.93;;
50781;SDS011;36749;37.428;-121.972;2022-10-16T15:29:11;15.60;;;7.85;;
50781;SDS011;36749;37.428;-121.972;2022-10-16T15:31:38;15.07;;;8.10;;
50781;SDS011;36749;37.428;-121.972;2022-10-16T15:34:08;15.88;;;8.93;;
50781;SDS011;36749;37.428;-121.972;2022-10-16T15:36:35;18.40;;;7.45;;
50781;SDS011;36749;37.428;-121.972;2022-10-16T15:39:11;19.02;;;9.15;;
50781;SDS011;36749;37.428;-121.972;2022-10-16T15:41:39;16.25;;;9.38;;
50781;SDS011;36749;37.428;-121.972;2022-10-16T15:44:05;17.88;;;9.65;;
50781;SDS011;36749;37.428;-121.972;2022-10-16T15:46:31;18.00;;;9.25;;
50781;SDS011;36749;37.428;-121.972;2022-10-16T15:48:59;20.25;;;10.80;;
50781;SDS011;36749;37.428;-121.972;2022-10-16T15:51:25;21.83;;;11.90;;
50781;SDS011;36749;37.428;-121.972;2022-10-16T15:53:58;18.85;;;9.75;;
50781;SDS011;36749;37.428;-121.972;2022-10-16T15:56:27;18.80;;;10.95;;
50781;SDS011;36749;37.428;-121.972;2022-10-16T15:58:54;18.05;;;9.50;;
50781;SDS011;36749;37.428;-121.972;2022-10-16T16:01:24;19.92;;;9.90;;
50781;SDS011;36749;37.428;-121.972;2022-10-16T16:03:54;16.65;;;8.75;;